Time;durP1;ratioP1;P1;durP2;ratioP2;P2;SDS_P1;SDS_P2;PMS_P1;PMS_P2;Temp;Humidity;BMP_temperature;BMP_pressure;BME280_temperature;BME280_humidity;BME280_pressure;Samples;Min_cycle;Max_cycle;Signal;HPM_P1;HPM_P2
2024/04/04 00:00:45;;;;;;;5.72;2.00;;;;;;;11.21;83.58;100012.00;2536308;28;20099;-78
2024/04/04 00:01:58;;;;;;;5.00;1.92;;;;;;;11.21;83.49;100028.53;2532912;28;20048;-78
2024/04/04 00:03:12;;;;;;;5.85;1.65;;;;;;;11.22;83.76;100022.41;2538267;28;20028;-79
2024/04/04 00:04:28;;;;;;;3.58;1.80;;;;;;;11.23;83.47;100012.81;2535338;28;20017;-78
2024/04/04 00:05:41;;;;;;;2.95;1.90;;;;;;;11.23;83.32;100016.31;2533044;28;20033;-78
2024/04/04 00:06:54;;;;;;;4.03;1.33;;;;;;;11.24;82.97;100015.41;2537438;28;20471;-78
2024/04/04 00:08:07;;;;;;;1.98;1.63;;;;;;;11.25;82.92;100016.25;2534511;28;20591;-78
2024/04/04 00:09:21;;;;;;;7.75;2.17;;;;;;;11.24;82.67;100014.56;2537776;28;20055;-77
2024/04/04 00:10:34;;;;;;;2.67;1.60;;;;;;;11.22;82.50;100013.72;2538711;28;20115;-79
2024/04/04 00:11:47;;;;;;;3.28;1.80;;;;;;;11.19;82.29;100019.00;2545005;28;20086;-78
2024/04/04 00:13:01;;;;;;;5.22;1.95;;;;;;;11.17;82.30;100015.56;2534790;28;20029;-78
2024/04/04 00:14:14;;;;;;;7.28;2.25;;;;;;;11.13;82.37;100009.56;2528880;28;20033;-78
2024/04/04 00:15:28;;;;;;;4.65;2.05;;;;;;;11.10;82.07;100013.09;2538499;28;20483;-78
2024/04/04 00:16:41;;;;;;;3.60;1.40;;;;;;;11.08;81.92;100012.25;2546366;28;20036;-78
2024/04/04 00:17:55;;;;;;;4.07;2.00;;;;;;;11.08;81.92;100017.50;2545377;28;20072;-78
2024/04/04 00:19:09;;;;;;;11.05;2.78;;;;;;;11.08;81.37;100016.63;2537663;28;20021;-78
2024/04/04 00:20:23;;;;;;;4.43;1.33;;;;;;;11.04;81.70;100013.22;2536159;28;20039;-78
2024/04/04 00:21:36;;;;;;;4.63;1.77;;;;;;;11.00;81.44;100016.78;2535139;28;20033;-78
2024/04/04 00:22:49;;;;;;;8.27;1.75;;;;;;;10.98;81.79;100022.94;2543485;28;20044;-78
2024/04/04 00:24:03;;;;;;;8.32;2.00;;;;;;;10.94;81.58;100016.91;2539301;28;20029;-77
2024/04/04 00:25:16;;;;;;;3.35;1.30;;;;;;;10.94;81.71;100011.69;2533286;28;20108;-78
2024/04/04 00:26:29;;;;;;;3.58;1.50;;;;;;;10.95;81.54;100012.56;2532503;28;20107;-78
2024/04/04 00:27:42;;;;;;;6.47;1.90;;;;;;;10.94;81.49;100010.81;2523892;28;20018;-78
2024/04/04 00:28:55;;;;;;;2.47;1.60;;;;;;;10.92;81.61;100018.72;2537088;28;20013;-77
2024/04/04 00:30:09;;;;;;;3.78;1.35;;;;;;;10.89;81.35;100009.19;2538523;28;20433;-77
2024/04/04 00:31:22;;;;;;;5.78;2.55;;;;;;;10.87;81.19;100013.56;2533843;28;20482;-77
2024/04/04 00:32:35;;;;;;;5.97;1.40;;;;;;;10.84;81.30;100013.63;2533906;28;20071;-77
2024/04/04 00:33:49;;;;;;;4.72;1.92;;;;;;;10.82;81.38;100007.59;2542675;28;20029;-77
2024/04/04 00:35:02;;;;;;;5.68;1.80;;;;;;;10.82;81.53;100009.34;2532666;28;20120;-77
2024/04/04 00:36:15;;;;;;;2.50;2.28;;;;;;;10.81;81.50;100002.38;2538993;28;20025;-77
2024/04/04 00:37:28;;;;;;;4.35;2.33;;;;;;;10.79;81.40;100007.66;2543121;28;20032;-77
2024/04/04 00:38:42;;;;;;;5.38;1.67;;;;;;;10.78;81.33;100000.69;2541512;28;20037;-77
2024/04/04 00:39:55;;;;;;;7.75;1.70;;;;;;;10.77;81.45;100004.19;2532247;28;20526;-77
2024/04/04 00:41:09;;;;;;;8.65;1.77;;;;;;;10.76;81.39;100006.81;2533139;28;20029;-77
2024/04/04 00:42:22;;;;;;;6.00;2.08;;;;;;;10.74;81.42;100004.28;2533221;28;20037;-77
2024/04/04 00:43:37;;;;;;;8.35;2.70;;;;;;;10.75;81.45;100003.38;2541927;28;20108;-78
2024/04/04 00:44:50;;;;;;;4.68;1.52;;;;;;;10.76;81.51;100010.28;2533979;28;20038;-78
2024/04/04 00:46:05;;;;;;;5.43;1.60;;;;;;;10.78;81.63;100005.06;2533016;28;20090;-78
2024/04/04 00:47:19;;;;;;;2.85;1.83;;;;;;;10.79;81.38;100005.03;2519448;28;20049;-78
2024/04/04 00:48:32;;;;;;;9.48;2.33;;;;;;;10.79;81.63;100001.53;2534578;28;20078;-77
2024/04/04 00:49:45;;;;;;;7.00;1.67;;;;;;;10.80;81.48;99990.22;2540680;28;20037;-78
2024/04/04 00:50:59;;;;;;;10.80;2.00;;;;;;;10.81;81.54;99997.16;2536255;28;20433;-77
2024/04/04 00:52:12;;;;;;;6.10;2.97;;;;;;;10.82;81.63;99993.69;2537653;28;20032;-77
2024/04/04 00:53:26;;;;;;;6.97;1.65;;;;;;;10.83;81.49;99991.00;2533165;28;20025;-78
2024/04/04 00:54:41;;;;;;;5.15;2.10;;;;;;;10.82;82.04;99991.91;2534882;28;20065;-78
2024/04/04 00:55:55;;;;;;;5.10;1.92;;;;;;;10.84;81.58;99986.66;2535724;28;20036;-77
2024/04/04 00:57:09;;;;;;;7.88;1.98;;;;;;;10.85;81.49;99991.00;2538507;28;20029;-77
2024/04/04 00:58:22;;;;;;;3.00;1.50;;;;;;;10.86;81.55;99996.16;2532776;28;20036;-77
2024/04/04 00:59:36;;;;;;;8.88;1.95;;;;;;;10.89;81.51;99995.25;2531744;28;20036;-77
2024/04/04 01:00:49;;;;;;;13.95;4.47;;;;;;;10.90;81.71;99996.97;2543805;28;20050;-77
2024/04/04 01:02:03;;;;;;;6.28;1.52;;;;;;;10.91;81.49;99991.72;2539112;28;20041;-78
2024/04/04 01:03:16;;;;;;;2.65;1.63;;;;;;;10.95;81.23;99987.31;2538179;28;20498;-77
2024/04/04 01:04:29;;;;;;;5.28;1.70;;;;;;;10.97;81.29;99985.53;2532522;28;20113;-77
2024/04/04 01:05:43;;;;;;;2.53;1.30;;;;;;;10.99;81.18;99975.03;2534358;28;20099;-77
2024/04/04 01:06:56;;;;;;;4.65;1.67;;;;;;;11.02;81.00;99975.84;2529052;28;20075;-78
2024/04/04 01:08:11;;;;;;;4.60;1.80;;;;;;;11.05;80.92;99980.16;2536044;28;20040;-77
2024/04/04 01:09:25;;;;;;;3.80;1.60;;;;;;;11.07;80.85;99983.56;2542188;28;20024;-77
2024/04/04 01:10:39;;;;;;;2.60;1.58;;;;;;;11.08;80.65;99987.91;2541679;28;20037;-78
2024/04/04 01:11:52;;;;;;;4.10;1.58;;;;;;;11.09;80.71;99987.84;2534884;28;20025;-78
2024/04/04 01:13:05;;;;;;;3.92;2.63;;;;;;;11.11;80.70;99990.44;2538587;28;20033;-78
2024/04/04 01:14:18;;;;;;;8.70;1.60;;;;;;;11.13;80.49;99993.91;2531211;28;20125;-77
2024/04/04 01:15:31;;;;;;;2.72;1.55;;;;;;;11.16;80.44;99990.34;2535661;28;20521;-77
2024/04/04 01:16:45;;;;;;;6.93;2.17;;;;;;;11.18;80.34;99984.22;2532808;28;20075;-78
2024/04/04 01:17:58;;;;;;;7.32;1.77;;;;;;;11.22;80.07;99985.84;2532793;28;20041;-77
2024/04/04 01:19:11;;;;;;;4.53;1.70;;;;;;;11.25;80.21;99985.78;2532012;28;20438;-77
2024/04/04 01:20:25;;;;;;;5.38;1.67;;;;;;;11.26;79.87;99986.66;2525776;28;20342;-77
2024/04/04 01:21:38;;;;;;;3.58;1.67;;;;;;;11.28;79.72;99997.91;2525617;28;20025;-78
2024/04/04 01:22:52;;;;;;;5.45;3.03;;;;;;;11.27;79.73;99989.22;2532599;28;20074;-78
2024/04/04 01:24:05;;;;;;;7.90;3.58;;;;;;;11.29;79.68;99992.66;2532956;28;20022;-79
2024/04/04 01:25:19;;;;;;;9.82;2.75;;;;;;;11.33;79.46;99996.06;2528036;28;20025;-77
2024/04/04 01:26:32;;;;;;;3.55;1.92;;;;;;;11.35;79.08;99989.91;2536004;28;20059;-78
2024/04/04 01:27:49;;;;;;;4.97;1.30;;;;;;;11.38;79.17;99996.81;2541397;28;20028;-77
2024/04/04 01:29:03;;;;;;;2.15;1.63;;;;;;;11.39;79.13;99995.09;2535648;28;20017;-77
2024/04/04 01:30:16;;;;;;;8.23;1.40;;;;;;;11.40;79.09;99992.41;2536988;28;20030;-78
2024/04/04 01:31:30;;;;;;;2.53;1.42;;;;;;;11.40;78.99;99997.63;2539481;28;20056;-78
2024/04/04 01:32:43;;;;;;;2.70;1.75;;;;;;;11.39;79.25;99993.31;2534252;28;20026;-78
2024/04/04 01:33:56;;;;;;;5.45;1.48;;;;;;;11.42;79.12;99995.00;2539104;28;20084;-77
2024/04/04 01:35:09;;;;;;;3.80;1.77;;;;;;;11.43;78.89;99988.88;2532677;28;20021;-77
2024/04/04 01:36:23;;;;;;;3.92;1.40;;;;;;;11.44;79.11;99988.84;2533227;28;20087;-78
2024/04/04 01:37:37;;;;;;;2.03;1.48;;;;;;;11.47;78.85;99991.38;2532475;28;20472;-78
2024/04/04 01:38:50;;;;;;;2.83;1.38;;;;;;;11.50;78.73;99987.84;2535678;28;20437;-78
2024/04/04 01:40:04;;;;;;;2.20;1.55;;;;;;;11.53;78.77;99985.16;2542747;28;20520;-79
2024/04/04 01:41:17;;;;;;;4.57;1.25;;;;;;;11.55;78.46;99984.22;2542684;28;20029;-78
2024/04/04 01:42:31;;;;;;;4.80;1.63;;;;;;;11.57;78.60;99986.81;2528405;28;20072;-78
2024/04/04 01:43:44;;;;;;;6.75;1.95;;;;;;;11.58;78.54;99976.31;2543513;28;20110;-78
2024/04/04 01:44:58;;;;;;;2.45;1.52;;;;;;;11.59;78.53;99982.41;2540329;28;20080;-78
2024/04/04 01:46:11;;;;;;;2.17;1.23;;;;;;;11.63;78.25;99984.03;2537283;28;20029;-77
2024/04/04 01:47:24;;;;;;;2.58;1.20;;;;;;;11.65;78.02;99979.66;2537024;28;20013;-78
2024/04/04 01:48:37;;;;;;;4.72;1.48;;;;;;;11.68;77.95;99984.81;2533646;28;20485;-77
2024/04/04 01:49:51;;;;;;;5.10;1.33;;;;;;;11.69;77.88;99978.66;2539084;28;20520;-77
2024/04/04 01:51:04;;;;;;;2.05;1.10;;;;;;;11.72;77.74;99982.97;2535583;28;20040;-77
2024/04/04 01:52:17;;;;;;;7.10;1.60;;;;;;;11.72;77.51;99981.22;2536594;28;20052;-77
2024/04/04 01:53:34;;;;;;;2.28;0.85;;;;;;;11.72;77.50;99977.72;2532373;28;20045;-77
2024/04/04 01:54:47;;;;;;;5.25;1.58;;;;;;;11.71;77.49;99973.41;2539490;28;20060;-77
2024/04/04 01:56:00;;;;;;;4.43;1.08;;;;;;;11.72;77.48;99978.63;2532126;28;20479;-77
2024/04/04 01:57:13;;;;;;;4.32;3.05;;;;;;;11.74;77.31;99970.72;2537312;28;20060;-78
2024/04/04 01:58:27;;;;;;;2.72;1.52;;;;;;;11.74;77.08;99973.34;2535253;28;20038;-77
2024/04/04 01:59:40;;;;;;;3.20;1.70;;;;;;;11.75;77.09;99967.22;2531886;28;20048;-78
2024/04/04 02:00:53;;;;;;;2.50;0.95;;;;;;;11.74;77.26;99966.34;2525481;28;20390;-78
2024/04/04 02:02:07;;;;;;;2.33;1.20;;;;;;;11.74;77.07;99957.66;2531708;28;20034;-78
2024/04/04 02:03:20;;;;;;;3.00;1.75;;;;;;;11.72;77.42;99964.66;2532839;28;20017;-79
2024/04/04 02:04:34;;;;;;;3.60;1.67;;;;;;;11.69;77.32;99968.22;2531837;28;20060;-77
2024/04/04 02:05:48;;;;;;;2.80;1.40;;;;;;;11.65;77.60;99958.75;2531483;28;20025;-77
2024/04/04 02:07:01;;;;;;;3.90;1.02;;;;;;;11.64;77.21;99961.38;2533878;28;20017;-77
2024/04/04 02:08:14;;;;;;;3.88;1.00;;;;;;;11.62;77.47;99961.44;2533467;28;20414;-78
2024/04/04 02:09:28;;;;;;;2.63;1.20;;;;;;;11.61;77.53;99954.47;2533025;28;20471;-78
2024/04/04 02:10:42;;;;;;;3.15;1.58;;;;;;;11.62;77.24;99956.22;2532825;28;20501;-79
2024/04/04 02:11:56;;;;;;;5.05;2.60;;;;;;;11.61;77.32;99954.47;2532205;28;20474;-78
2024/04/04 02:13:09;;;;;;;4.72;1.90;;;;;;;11.60;77.42;99955.38;2532503;28;20040;-79
2024/04/04 02:14:22;;;;;;;2.80;1.98;;;;;;;11.61;77.11;99962.31;2532174;28;20029;-78
2024/04/04 02:15:39;;;;;;;2.15;1.50;;;;;;;11.62;77.13;99950.97;2531731;28;20112;-79
2024/04/04 02:16:53;;;;;;;1.67;1.30;;;;;;;11.65;77.23;99947.44;2526357;28;20061;-79
2024/04/04 02:18:07;;;;;;;2.70;0.90;;;;;;;11.65;77.21;99956.13;2531979;28;20029;-77
2024/04/04 02:19:20;;;;;;;1.75;1.10;;;;;;;11.68;77.04;99955.19;2531666;28;20486;-78
2024/04/04 02:20:34;;;;;;;2.63;1.15;;;;;;;11.68;77.00;99958.66;2532759;28;20021;-79
2024/04/04 02:21:47;;;;;;;2.83;1.40;;;;;;;11.70;76.49;99962.09;2532343;28;20024;-79
2024/04/04 02:23:00;;;;;;;2.75;1.02;;;;;;;11.72;76.71;99951.59;2532245;28;20057;-79
2024/04/04 02:24:14;;;;;;;4.43;1.67;;;;;;;11.73;76.35;99948.94;2531355;28;20024;-77
2024/04/04 02:25:27;;;;;;;2.63;1.73;;;;;;;11.76;76.04;99946.25;2538843;28;20096;-79
2024/04/04 02:26:40;;;;;;;3.80;1.55;;;;;;;11.80;75.97;99952.28;2532827;28;20032;-79
2024/04/04 02:27:54;;;;;;;3.80;1.45;;;;;;;11.80;75.91;99957.50;2525248;28;20079;-78
2024/04/04 02:29:07;;;;;;;2.65;1.13;;;;;;;11.82;75.75;99955.69;2528427;28;20021;-77
2024/04/04 02:30:20;;;;;;;2.42;1.02;;;;;;;11.85;75.91;99949.53;2541463;28;20099;-77
2024/04/04 02:31:34;;;;;;;1.00;0.75;;;;;;;11.92;75.56;99956.38;2534293;28;20017;-77
2024/04/04 02:32:49;;;;;;;5.63;1.92;;;;;;;11.95;75.27;99953.66;2532710;28;20116;-79
2024/04/04 02:34:03;;;;;;;4.07;1.27;;;;;;;11.98;74.93;99951.00;2539077;28;20022;-78
2024/04/04 02:35:17;;;;;;;3.28;1.42;;;;;;;12.01;75.01;99956.16;2531662;28;20068;-78
2024/04/04 02:36:30;;;;;;;4.38;0.70;;;;;;;12.04;74.88;99960.44;2532089;28;20017;-78
2024/04/04 02:37:44;;;;;;;1.60;0.90;;;;;;;12.06;74.46;99956.03;2532638;28;20105;-78
2024/04/04 02:38:57;;;;;;;5.82;1.45;;;;;;;12.07;74.36;99958.59;2532320;28;20542;-78
2024/04/04 02:40:10;;;;;;;1.20;1.10;;;;;;;12.10;74.11;99945.44;2532126;28;20040;-79
2024/04/04 02:41:23;;;;;;;5.18;2.13;;;;;;;12.14;73.96;99947.06;2532191;28;20041;-79
2024/04/04 02:42:37;;;;;;;1.45;1.00;;;;;;;12.17;73.54;99947.00;2531097;28;20029;-78
2024/04/04 02:43:50;;;;;;;3.35;1.30;;;;;;;12.19;73.49;99949.59;2532068;28;20024;-78
2024/04/04 02:45:03;;;;;;;3.78;0.93;;;;;;;12.20;73.67;99939.06;2532536;28;20021;-77
2024/04/04 02:46:16;;;;;;;2.15;1.00;;;;;;;12.22;73.87;99946.88;2536463;28;20521;-78
2024/04/04 02:47:30;;;;;;;1.92;1.00;;;;;;;12.21;73.58;99943.41;2535061;28;20064;-79
2024/04/04 02:48:45;;;;;;;1.70;1.50;;;;;;;12.22;73.72;99936.41;2539870;28;20048;-78
2024/04/04 02:49:58;;;;;;;10.43;1.58;;;;;;;12.22;73.27;99954.72;2531653;28;20045;-78
2024/04/04 02:51:12;;;;;;;7.00;1.67;;;;;;;12.25;73.28;99943.31;2534218;28;20479;-79
2024/04/04 02:52:25;;;;;;;2.92;0.95;;;;;;;12.27;73.62;99944.16;2536322;28;20020;-77
2024/04/04 02:53:40;;;;;;;2.50;0.90;;;;;;;12.26;73.66;99943.25;2531883;28;20078;-78
2024/04/04 02:54:54;;;;;;;2.83;1.13;;;;;;;12.28;73.86;99944.09;2532118;28;20067;-78
2024/04/04 02:56:07;;;;;;;2.42;1.30;;;;;;;12.27;73.82;99941.53;2532039;28;20150;-78
2024/04/04 02:57:20;;;;;;;5.07;1.35;;;;;;;12.27;73.79;99944.16;2531721;28;20089;-80
2024/04/04 02:58:33;;;;;;;3.25;1.00;;;;;;;12.27;73.96;99955.47;2535060;28;20087;-77
2024/04/04 02:59:47;;;;;;;3.05;1.20;;;;;;;12.29;73.80;99929.25;2540546;28;20730;-78
2024/04/04 03:01:03;;;;;;;1.05;0.88;;;;;;;12.30;73.73;99936.22;2524843;28;20430;-79
2024/04/04 03:02:17;;;;;;;5.30;1.65;;;;;;;12.31;73.81;99943.13;2531675;28;20052;-78
2024/04/04 03:03:30;;;;;;;3.92;1.17;;;;;;;12.30;73.77;99947.53;2538852;28;20049;-78
2024/04/04 03:04:44;;;;;;;1.88;1.23;;;;;;;12.31;73.84;99953.59;2533326;28;20025;-80
2024/04/04 03:05:57;;;;;;;2.95;0.70;;;;;;;12.29;73.77;99945.81;2539178;28;20041;-78
2024/04/04 03:07:10;;;;;;;5.72;1.30;;;;;;;12.27;73.98;99931.91;2535370;28;20539;-79
2024/04/04 03:08:23;;;;;;;4.15;1.35;;;;;;;12.23;73.91;99933.75;2536415;28;20049;-80
2024/04/04 03:09:37;;;;;;;1.75;0.80;;;;;;;12.21;74.01;99932.94;2532303;28;20029;-79
2024/04/04 03:10:50;;;;;;;2.13;1.00;;;;;;;12.18;74.10;99943.50;2538922;28;20094;-81
2024/04/04 03:12:03;;;;;;;2.63;1.10;;;;;;;12.14;74.34;99947.06;2532675;28;20018;-80
2024/04/04 03:13:17;;;;;;;2.85;0.90;;;;;;;12.11;74.35;99941.94;2533181;28;20022;-79
2024/04/04 03:14:30;;;;;;;5.03;1.30;;;;;;;12.08;74.37;99939.41;2532824;28;20029;-79
2024/04/04 03:15:53;;;;;;;1.45;1.00;;;;;;;12.07;74.46;99945.50;2532243;28;20025;-82
2024/04/04 03:17:07;;;;;;;2.22;1.08;;;;;;;12.04;74.38;99940.38;2536084;28;20013;-79
2024/04/04 03:18:20;;;;;;;6.28;1.92;;;;;;;12.00;74.28;99936.09;2537585;28;20120;-79
2024/04/04 03:19:33;;;;;;;5.07;3.42;;;;;;;11.96;74.52;99932.72;2541725;28;20055;-80
2024/04/04 03:20:46;;;;;;;5.63;2.03;;;;;;;11.95;74.80;99933.63;2538941;28;20033;-80
2024/04/04 03:22:00;;;;;;;2.03;0.98;;;;;;;11.95;74.78;99943.22;2532701;28;20034;-79
2024/04/04 03:23:13;;;;;;;3.92;1.35;;;;;;;11.96;74.47;99937.94;2532488;28;20027;-80
2024/04/04 03:24:26;;;;;;;2.70;1.45;;;;;;;11.97;74.60;99934.44;2531913;28;20017;-79
2024/04/04 03:25:39;;;;;;;1.45;1.10;;;;;;;11.97;74.52;99944.03;2533835;28;20021;-79
2024/04/04 03:26:53;;;;;;;4.90;1.02;;;;;;;11.95;74.49;99946.72;2532075;28;20018;-80
2024/04/04 03:28:06;;;;;;;1.73;0.88;;;;;;;11.95;74.70;99948.44;2526296;28;20029;-80
2024/04/04 03:29:19;;;;;;;3.65;1.08;;;;;;;11.94;74.52;99949.34;2530643;28;20401;-80
2024/04/04 03:30:33;;;;;;;1.45;0.80;;;;;;;11.93;74.73;99952.88;2535527;28;20083;-80
2024/04/04 03:31:46;;;;;;;3.55;2.30;;;;;;;11.92;74.96;99946.75;2535391;28;20126;-80
2024/04/04 03:32:59;;;;;;;2.75;1.15;;;;;;;11.92;74.97;99953.75;2540366;28;20092;-79
2024/04/04 03:34:13;;;;;;;2.20;0.95;;;;;;;11.88;74.76;99945.13;2533859;28;20040;-82
2024/04/04 03:35:26;;;;;;;2.97;0.75;;;;;;;11.87;74.78;99943.41;2532058;28;20022;-78
2024/04/04 03:36:41;;;;;;;2.72;0.90;;;;;;;11.86;74.90;99943.44;2529464;28;20017;-80
2024/04/04 03:37:54;;;;;;;6.78;1.83;;;;;;;11.85;75.04;99945.19;2529677;28;20021;-79
2024/04/04 03:39:07;;;;;;;2.63;0.93;;;;;;;11.85;74.98;99939.06;2530458;28;20027;-79
2024/04/04 03:40:20;;;;;;;3.97;1.30;;;;;;;11.86;75.02;99940.81;2533895;28;20111;-78
2024/04/04 03:41:34;;;;;;;2.42;0.88;;;;;;;11.86;74.84;99943.44;2534668;28;20040;-78
2024/04/04 03:42:47;;;;;;;6.07;0.95;;;;;;;11.84;74.97;99939.97;2530728;28;20040;-79
2024/04/04 03:44:00;;;;;;;2.25;0.93;;;;;;;11.82;75.14;99933.94;2541417;28;20482;-77
2024/04/04 03:45:14;;;;;;;3.10;1.42;;;;;;;11.82;75.07;99944.38;2538793;28;20478;-78
2024/04/04 03:46:27;;;;;;;2.78;0.90;;;;;;;11.81;75.14;99938.31;2541256;28;20498;-79
2024/04/04 03:47:40;;;;;;;5.50;1.33;;;;;;;11.82;75.17;99940.00;2534422;28;20029;-79
2024/04/04 03:48:53;;;;;;;3.75;1.33;;;;;;;11.81;75.15;99938.31;2532887;28;20128;-78
2024/04/04 03:50:07;;;;;;;5.18;3.58;;;;;;;11.82;75.16;99934.78;2541477;28;20033;-77
2024/04/04 03:51:20;;;;;;;1.88;1.30;;;;;;;11.84;75.05;99939.97;2541892;28;20029;-78
2024/04/04 03:52:33;;;;;;;3.25;1.70;;;;;;;11.84;74.86;99926.91;2541984;28;20052;-79
2024/04/04 03:53:46;;;;;;;2.75;2.20;;;;;;;11.86;74.92;99936.47;2532274;28;20068;-79
2024/04/04 03:55:00;;;;;;;2.00;0.93;;;;;;;11.89;74.94;99930.31;2534223;28;20029;-78
2024/04/04 03:56:13;;;;;;;6.32;2.40;;;;;;;11.92;74.66;99935.44;2539914;28;20138;-78
2024/04/04 03:57:27;;;;;;;38.90;34.53;;;;;;;11.94;74.74;99933.66;2539506;28;20028;-78
2024/04/04 03:58:40;;;;;;;9.18;4.90;;;;;;;11.96;74.61;99934.47;2538788;28;20142;-78
2024/04/04 03:59:53;;;;;;;3.30;1.20;;;;;;;11.98;74.83;99938.78;2534821;28;20055;-79
2024/04/04 04:01:07;;;;;;;4.82;2.33;;;;;;;12.00;74.57;99939.59;2540904;28;20021;-78
2024/04/04 04:02:22;;;;;;;4.07;2.25;;;;;;;12.04;74.43;99942.13;2538066;28;20033;-78
2024/04/04 04:03:35;;;;;;;3.55;1.85;;;;;;;12.07;74.53;99945.50;2536646;28;20471;-79
2024/04/04 04:04:49;;;;;;;19.20;15.15;;;;;;;12.09;74.35;99937.63;2533779;28;20021;-77
2024/04/04 04:06:02;;;;;;;4.72;2.70;;;;;;;12.11;74.26;99947.16;2534700;28;20128;-78
2024/04/04 04:07:16;;;;;;;8.00;1.95;;;;;;;12.13;73.65;99952.34;2543435;28;20025;-79
2024/04/04 04:08:29;;;;;;;5.30;2.88;;;;;;;12.15;73.95;99953.16;2543079;28;20139;-78
2024/04/04 04:09:43;;;;;;;3.78;1.02;;;;;;;12.15;73.86;99945.31;2542818;28;20070;-78
2024/04/04 04:10:56;;;;;;;2.35;1.45;;;;;;;12.18;73.69;99956.56;2543740;28;20017;-79
2024/04/04 04:12:09;;;;;;;1.65;1.40;;;;;;;12.19;73.76;99950.44;2543783;28;20021;-78
2024/04/04 04:13:22;;;;;;;5.75;2.80;;;;;;;12.23;73.79;99951.19;2543542;28;20675;-78
2024/04/04 04:14:36;;;;;;;4.30;1.13;;;;;;;12.24;73.83;99947.69;2543396;28;20037;-79
2024/04/04 04:15:56;;;;;;;3.38;0.90;;;;;;;12.24;73.63;99950.31;2543544;28;20021;-79
2024/04/04 04:17:10;;;;;;;3.80;2.45;;;;;;;12.25;73.66;99948.56;2540095;28;20086;-79
2024/04/04 04:18:23;;;;;;;3.95;0.90;;;;;;;12.25;73.68;99943.31;2528586;28;20100;-79
2024/04/04 04:19:37;;;;;;;2.97;1.40;;;;;;;12.26;73.45;99945.88;2539760;28;20043;-82
2024/04/04 04:22:22;;;;;;;1.63;0.95;;;;;;;12.26;73.54;99945.88;2535173;28;20064;-82
2024/04/04 04:23:35;;;;;;;3.40;1.48;;;;;;;12.29;73.40;99939.69;2537152;28;20102;-80
2024/04/04 04:24:49;;;;;;;6.68;5.22;;;;;;;12.30;73.58;99941.44;2539619;28;20552;-79
2024/04/04 04:26:02;;;;;;;3.40;1.02;;;;;;;12.31;73.26;99932.69;2525800;28;20041;-81
2024/04/04 04:27:15;;;;;;;4.88;1.52;;;;;;;12.30;73.34;99937.06;2534264;28;20023;-80
2024/04/04 04:28:29;;;;;;;2.65;1.45;;;;;;;12.30;73.30;99938.81;2534315;28;20096;-80
2024/04/04 04:29:42;;;;;;;9.75;4.72;;;;;;;12.31;73.31;99935.28;2540408;28;20051;-78
2024/04/04 04:30:55;;;;;;;3.13;1.20;;;;;;;12.29;73.22;99939.69;2542647;28;20099;-79
2024/04/04 04:32:09;;;;;;;0.88;0.85;;;;;;;12.30;72.76;99934.44;2536649;28;20036;-78
2024/04/04 04:33:22;;;;;;;6.30;3.53;;;;;;;12.30;72.48;99931.81;2543025;28;20070;-79
2024/04/04 04:34:35;;;;;;;15.68;11.85;;;;;;;12.31;73.15;99933.53;2542972;28;20059;-78
2024/04/04 04:35:49;;;;;;;4.60;2.78;;;;;;;12.33;72.30;99936.13;2543364;28;20020;-79
2024/04/04 04:37:07;;;;;;;6.60;1.70;;;;;;;12.34;72.29;99933.47;2533192;28;20025;-79
2024/04/04 04:38:20;;;;;;;5.55;1.30;;;;;;;12.36;72.72;99930.78;2537982;28;20052;-79
2024/04/04 04:39:34;;;;;;;11.77;8.70;;;;;;;12.36;72.70;99930.78;2538275;28;20036;-79
2024/04/04 04:40:51;;;;;;;3.50;1.35;;;;;;;12.39;72.31;99938.56;2533764;28;20068;-79
2024/04/04 04:42:05;;;;;;;2.72;1.05;;;;;;;12.41;72.53;99921.06;2541973;28;20037;-79
2024/04/04 04:43:18;;;;;;;9.93;6.95;;;;;;;12.41;72.87;99928.91;2542719;28;20524;-79
2024/04/04 04:44:31;;;;;;;14.15;10.23;;;;;;;12.41;72.85;99936.75;2537717;28;20037;-79
2024/04/04 04:45:44;;;;;;;4.43;1.30;;;;;;;12.42;72.21;99934.13;2540659;28;20024;-80
2024/04/04 04:46:58;;;;;;;4.32;1.35;;;;;;;12.42;72.37;99933.25;2544276;28;20075;-79
2024/04/04 04:48:11;;;;;;;14.00;8.85;;;;;;;12.43;72.60;99932.34;2544558;28;20096;-78
2024/04/04 04:49:24;;;;;;;2.92;1.10;;;;;;;12.43;72.40;99919.25;2532174;28;20103;-79
2024/04/04 04:50:38;;;;;;;4.93;1.85;;;;;;;12.43;72.82;99921.88;2536366;28;20032;-79
2024/04/04 04:51:51;;;;;;;2.72;1.13;;;;;;;12.45;72.34;99935.78;2543435;28;20028;-78
2024/04/04 04:53:04;;;;;;;2.03;1.17;;;;;;;12.48;72.04;99929.59;2543173;28;20029;-79
2024/04/04 04:54:18;;;;;;;17.02;12.60;;;;;;;12.46;72.21;99928.78;2542156;28;20037;-79
2024/04/04 04:55:31;;;;;;;2.25;1.77;;;;;;;12.45;72.48;99920.09;2537937;28;20446;-79
2024/04/04 04:56:44;;;;;;;3.22;1.10;;;;;;;12.44;72.48;99915.72;2541568;28;20382;-79
2024/04/04 04:57:57;;;;;;;3.88;1.27;;;;;;;12.43;72.62;99921.88;2535784;28;20041;-79
2024/04/04 04:59:11;;;;;;;4.40;1.10;;;;;;;12.41;72.57;99910.59;2540335;28;20030;-78
2024/04/04 05:00:24;;;;;;;8.95;6.65;;;;;;;12.40;72.40;99911.50;2532105;28;20104;-79
2024/04/04 05:01:37;;;;;;;4.13;0.93;;;;;;;12.39;72.78;99912.38;2536445;28;20020;-79
2024/04/04 05:02:52;;;;;;;5.35;1.98;;;;;;;12.40;72.54;99911.50;2544277;28;20070;-79
2024/04/04 05:04:05;;;;;;;4.60;2.45;;;;;;;12.39;72.69;99904.53;2540440;28;20032;-79
2024/04/04 05:05:19;;;;;;;4.18;2.05;;;;;;;12.38;72.62;99905.44;2533001;28;20049;-79
2024/04/04 05:06:33;;;;;;;3.20;0.98;;;;;;;12.37;72.84;99904.59;2532672;28;20111;-78
2024/04/04 05:07:46;;;;;;;3.67;1.63;;;;;;;12.35;72.85;99903.78;2533398;28;20013;-79
2024/04/04 05:09:00;;;;;;;1.42;0.90;;;;;;;12.35;72.78;99905.53;2542731;28;20032;-79
2024/04/04 05:10:13;;;;;;;1.95;1.10;;;;;;;12.36;72.50;99904.63;2536900;28;20029;-79
2024/04/04 05:11:26;;;;;;;4.15;1.30;;;;;;;12.35;72.61;99921.25;2539227;28;20017;-79
2024/04/04 05:12:40;;;;;;;2.38;1.42;;;;;;;12.34;72.63;99906.41;2541822;28;20013;-79
2024/04/04 05:13:54;;;;;;;2.42;1.38;;;;;;;12.35;72.66;99909.00;2551278;28;20017;-79
2024/04/04 05:15:07;;;;;;;3.70;1.02;;;;;;;12.37;72.25;99906.38;2544580;28;20025;-79
2024/04/04 05:16:20;;;;;;;2.58;1.30;;;;;;;12.38;72.52;99915.91;2533417;28;20072;-79
2024/04/04 05:17:33;;;;;;;1.95;1.15;;;;;;;12.38;72.59;99910.69;2539878;28;20458;-79
2024/04/04 05:18:47;;;;;;;5.85;1.15;;;;;;;12.36;72.35;99908.09;2536168;28;20036;-79
2024/04/04 05:20:00;;;;;;;4.53;2.55;;;;;;;12.36;72.62;99917.72;2533831;28;20042;-79
2024/04/04 05:21:13;;;;;;;3.42;1.25;;;;;;;12.35;72.53;99906.38;2543506;28;20044;-79
2024/04/04 05:22:27;;;;;;;2.38;1.00;;;;;;;12.36;72.46;99909.88;2545255;28;20498;-79
2024/04/04 05:23:40;;;;;;;2.38;0.98;;;;;;;12.38;72.51;99908.06;2536635;28;20030;-79
2024/04/04 05:24:54;;;;;;;3.13;1.17;;;;;;;12.39;71.93;99909.78;2533046;28;20029;-79
2024/04/04 05:26:07;;;;;;;7.93;2.63;;;;;;;12.41;72.21;99907.97;2534812;28;20044;-79
2024/04/04 05:27:20;;;;;;;5.03;1.30;;;;;;;12.44;71.92;99907.88;2532394;28;20032;-79
2024/04/04 05:28:36;;;;;;;8.00;1.83;;;;;;;12.49;71.72;99911.22;2533330;28;20052;-80
2024/04/04 05:29:53;;;;;;;5.07;1.20;;;;;;;12.54;71.48;99913.72;2541777;28;20083;-79
2024/04/04 05:31:06;;;;;;;2.08;0.90;;;;;;;12.57;71.21;99904.03;2534958;28;20021;-79
2024/04/04 05:32:20;;;;;;;5.88;1.85;;;;;;;12.61;71.06;99905.66;2538977;28;20013;-79
2024/04/04 05:33:33;;;;;;;7.07;2.00;;;;;;;12.67;71.04;99899.38;2533747;28;20025;-78
2024/04/04 05:34:50;;;;;;;8.15;1.75;;;;;;;12.71;71.11;99900.16;2533086;28;20771;-79
2024/04/04 05:36:03;;;;;;;4.07;1.30;;;;;;;12.73;70.88;99904.44;2541847;28;20025;-79
2024/04/04 05:37:17;;;;;;;6.10;2.05;;;;;;;12.75;70.78;99912.25;2537258;28;20517;-79
2024/04/04 05:38:30;;;;;;;4.55;1.50;;;;;;;12.77;70.47;99911.28;2547910;28;20036;-79
2024/04/04 05:39:43;;;;;;;7.15;2.08;;;;;;;12.79;70.26;99904.25;2539357;28;20059;-79
2024/04/04 05:40:56;;;;;;;5.45;1.92;;;;;;;12.80;70.35;99916.47;2542482;28;20029;-79
2024/04/04 05:42:10;;;;;;;2.85;1.73;;;;;;;12.80;70.38;99899.88;2533445;28;20055;-79
2024/04/04 05:43:23;;;;;;;3.28;1.60;;;;;;;12.79;70.48;99904.25;2533684;28;20013;-79
2024/04/04 05:44:37;;;;;;;6.40;2.20;;;;;;;12.79;69.99;99906.03;2532737;28;20520;-79
2024/04/04 05:45:50;;;;;;;2.90;2.63;;;;;;;12.78;69.91;99913.03;2524526;28;20018;-79
2024/04/04 05:47:03;;;;;;;4.63;2.13;;;;;;;12.78;69.83;99913.03;2552767;28;20445;-79